Houston-Southwest Information

FAA: AXH - ICAO: KAXH

Houston-Southwest (Airport) Location

State Texas
County Fort Bend
City Houston
Houston-Southwest (Airport) is 15 miles southwest of Houston, TX.
Latitude 29-30-22.1000N
Longitude 095-28-36.9000W
Elevation 68ft

Houston-Southwest METARs

METAR KAXH 191155Z AUTO 00000KT 10SM CLR 22/21 A2986 RMK AO2 T02180209 10230 20210
Altimeter 29.86"
Temperature 21.8°C (71.2°F)
Wind 0° at 0KT
Clouds Skies are clear.
Visibility 10.0mi
Time observed: 2022-05-19T11:55:00Z

Houston-Southwest (Airport) Details

Status Operational
Activation February 1979
Ownership Private
Usage Public
Chart HOUSTON
ATC on-site No
Beacon schedule sunset-sunrise
Beacon color clear green

Houston-Southwest (Airport) Contacts

Owner JAMES GRIFFITH JR
Owner address 503 MC KEEVER RD, ARCOLA, TX 77583
Owner phone 281-431-2581
Manager N/A
Manager address N/A, N/A
Manager phone N/A

Houston-Southwest Radio Frequencies

Houston-Southwest (Airport) Radio Frequencies

UNICOM 123
Common traffic advisory frequency (CTAF) 123